Seneimaru — JG5357 — position and weather

sailwx.info

Track history (hours):
 
Tides and Currents Weather Stations Pressure Air Temp Water Temp Dewpoint Dewpoint Depression Visibility Wind Speed Wind Dir Waves Ship Positions

Seneimaru

Last reported at 2014-Dec-17 19:34 UTC. Time now 2014-Dec-17 19:57 UTC.
Position N 35°30' E 139°43'.

Length 72 m; draft 5.9 m.

Type: Cargo ship. MMSI: 431100477.

Date/timePositionNaut miles runAvg speedWind from/ knotsBaromVisibWave heightAir tempDewpointWater temp
2014-Dec-17 19:34N 35°30' E 139°43'0 0.0
2014-Dec-17 18:34N 35°30' E 139°43'0 0.0
2014-Dec-17 17:33N 35°30' E 139°43'0 0.0
2014-Dec-17 16:33N 35°30' E 139°43'0 0.0
2014-Dec-17 15:33N 35°30' E 139°43'0 0.0
2014-Dec-17 14:33N 35°30' E 139°43'0 0.0
2014-Dec-17 13:33N 35°30' E 139°43'0 0.0
2014-Dec-17 12:34N 35°30' E 139°43'0 0.0
2014-Dec-17 11:33N 35°30' E 139°43'0 0.0
2014-Dec-17 10:34N 35°30' E 139°43'0 0.0
2014-Dec-17 09:34N 35°30' E 139°43'0 0.0
2014-Dec-17 08:34N 35°30' E 139°43'0 0.0
2014-Dec-17 07:34N 35°30' E 139°43'2 1.5
2014-Dec-17 06:33N 35°29' E 139°42'5 5.4
2014-Dec-17 05:33N 35°24' E 139°44'0 0.0
2014-Dec-17 04:32N 35°24' E 139°44'0 0.0
2014-Dec-17 03:33N 35°24' E 139°44'0 0.0
2014-Dec-17 02:34N 35°24' E 139°44'0 0.0
2014-Dec-17 01:33N 35°24' E 139°44'0 0.2
2014-Dec-17 00:33N 35°24' E 139°45'0 0.1
2014-Dec-16 23:33N 35°24' E 139°45'0 0.0
2014-Dec-16 22:33N 35°24' E 139°45'0 0.0
2014-Dec-16 21:34N 35°24' E 139°45'0 0.0
2014-Dec-16 20:33N 35°24' E 139°45'0 0.0
2014-Dec-16 19:33N 35°24' E 139°45'0 0.0
2014-Dec-16 18:33N 35°24' E 139°45'0 0.0
2014-Dec-16 17:32N 35°24' E 139°45'0 0.0
2014-Dec-16 16:32N 35°24' E 139°45'0 0.0
2014-Dec-16 15:31N 35°24' E 139°45'0 0.0
2014-Dec-16 14:33N 35°24' E 139°45'0 0.1
2014-Dec-16 13:33N 35°24' E 139°44'0 0.1
2014-Dec-16 12:33N 35°24' E 139°44'0 0.1
2014-Dec-16 11:33N 35°23' E 139°44'0 0.0
2014-Dec-16 10:33N 35°23' E 139°44'0 0.0
2014-Dec-16 09:33N 35°23' E 139°44'0 0.0
2014-Dec-16 08:30N 35°23' E 139°44'0 0.0
2014-Dec-16 07:33N 35°23' E 139°44'0 0.0
2014-Dec-16 06:33N 35°23' E 139°44'0 0.0
2014-Dec-16 05:33N 35°23' E 139°44'0 0.0
2014-Dec-16 04:21N 35°23' E 139°44'0 0.0
2014-Dec-16 03:30N 35°23' E 139°44'0 0.0
2014-Dec-16 02:30N 35°23' E 139°44'0 0.0
2014-Dec-16 01:10N 35°23' E 139°44'0 0.0
2014-Dec-15 23:33N 35°23' E 139°44'0 0.0
2014-Dec-15 22:33N 35°23' E 139°44'0 0.0
2014-Dec-15 21:33N 35°23' E 139°44'2 2.1
2014-Dec-15 20:33N 35°22' E 139°43'1211.0
2014-Dec-15 19:28N 35°10' E 139°47'4 0.1
2014-Dec-14 07:29N 35°15' E 139°46'1010.9
2014-Dec-14 06:33N 35°24' E 139°43'5 5.4
2014-Dec-14 05:33N 35°30' E 139°43'0 0.4
2014-Dec-14 04:33N 35°30' E 139°43'0 0.0
2014-Dec-14 03:33N 35°30' E 139°43'0 0.0
2014-Dec-14 02:33N 35°30' E 139°43'4 3.7
2014-Dec-14 01:33N 35°26' E 139°44'6 5.8
2014-Dec-14 00:33N 35°21' E 139°45'1211.3
2014-Dec-13 23:29N 35°09' E 139°46'2 0.1
2014-Dec-12 03:14N 35°11' E 139°46'811.5
2014-Dec-12 02:33N 35°19' E 139°44'1110.8
2014-Dec-12 01:33N 35°29' E 139°47'4 3.9
2014-Dec-12 00:33N 35°30' E 139°43'0 0.0
2014-Dec-11 23:33N 35°30' E 139°43'0 0.0
2014-Dec-11 22:33N 35°30' E 139°43'0 0.0
2014-Dec-11 21:33N 35°30' E 139°43'1 0.9
2014-Dec-11 20:33N 35°29' E 139°43'6 5.7
2014-Dec-11 19:33N 35°24' E 139°44'0 0.0
2014-Dec-11 18:32N 35°24' E 139°44'0 0.0
2014-Dec-11 17:32N 35°24' E 139°44'0 0.0
2014-Dec-11 16:32N 35°24' E 139°44'8 8.5
2014-Dec-11 15:33N 35°16' E 139°47'2 0.1
2014-Dec-10 03:32N 35°14' E 139°46'1111.3
2014-Dec-10 02:33N 35°24' E 139°43'5 5.4
2014-Dec-10 01:33N 35°30' E 139°43'0 0.4
2014-Dec-10 00:33N 35°30' E 139°43'0 0.0
2014-Dec-09 23:33N 35°30' E 139°43'0 0.0
2014-Dec-09 22:33N 35°30' E 139°43'0 0.0
2014-Dec-09 21:33N 35°30' E 139°43'0 0.0
2014-Dec-09 20:33N 35°30' E 139°43'0 0.0
2014-Dec-09 19:33N 35°30' E 139°43'0 0.0
2014-Dec-09 18:33N 35°30' E 139°43'0 0.0
2014-Dec-09 17:33N 35°30' E 139°43'0 0.0
2014-Dec-09 16:33N 35°30' E 139°43'0 0.0
2014-Dec-09 15:33N 35°30' E 139°43'0 0.0
2014-Dec-09 14:33N 35°30' E 139°43'0 0.0
2014-Dec-09 13:33N 35°30' E 139°43'0 0.0
2014-Dec-09 12:33N 35°30' E 139°43'0 0.0
2014-Dec-09 11:33N 35°30' E 139°43'0 0.0
2014-Dec-09 10:33N 35°30' E 139°43'0 0.0
2014-Dec-09 09:33N 35°30' E 139°43'0 0.0
2014-Dec-09 08:33N 35°30' E 139°43'0 0.0
2014-Dec-09 07:33N 35°30' E 139°43'0 0.0
2014-Dec-09 06:33N 35°30' E 139°43'0 0.0
2014-Dec-09 05:33N 35°30' E 139°43'0 0.0
2014-Dec-09 04:33N 35°30' E 139°43'2 1.8
2014-Dec-09 03:33N 35°28' E 139°42'5 5.1
2014-Dec-09 02:33N 35°24' E 139°44'0 0.1
2014-Dec-09 01:33N 35°24' E 139°44'0 0.0
2014-Dec-09 00:33N 35°24' E 139°44'0 0.0
2014-Dec-08 23:33N 35°24' E 139°44'0 0.0
2014-Dec-08 22:33N 35°24' E 139°44'0 0.0
2014-Dec-08 21:33N 35°24' E 139°44'0 0.0
2014-Dec-08 20:30N 35°24' E 139°44'0 0.0
2014-Dec-08 19:33N 35°24' E 139°44'0 0.1
2014-Dec-08 18:33N 35°24' E 139°44'0 0.0
2014-Dec-08 17:33N 35°24' E 139°44'0 0.3
2014-Dec-08 16:33N 35°23' E 139°44'1110.8
2014-Dec-08 15:33N 35°13' E 139°47'  
Track history (hours):
 
Tides and Currents Weather Stations Pressure Air Temp Water Temp Dewpoint Dewpoint Depression Visibility Wind Speed Wind Dir Waves Ship Positions

Seneimaru

Last reported at 2014-Dec-17 19:34 UTC. Time now 2014-Dec-17 19:57 UTC.
Position N 35°30' E 139°43'.

Length 72 m; draft 5.9 m.

Type: Cargo ship. MMSI: 431100477.

Date/timePositionNaut miles runAvg speedWind from/ knotsBaromVisibWave heightAir tempDewpointWater temp
2014-Dec-17 19:34N 35°30' E 139°43'0 0.0
2014-Dec-17 18:34N 35°30' E 139°43'0 0.0
2014-Dec-17 17:33N 35°30' E 139°43'0 0.0
2014-Dec-17 16:33N 35°30' E 139°43'0 0.0
2014-Dec-17 15:33N 35°30' E 139°43'0 0.0
2014-Dec-17 14:33N 35°30' E 139°43'0 0.0
2014-Dec-17 13:33N 35°30' E 139°43'0 0.0
2014-Dec-17 12:34N 35°30' E 139°43'0 0.0
2014-Dec-17 11:33N 35°30' E 139°43'0 0.0
2014-Dec-17 10:34N 35°30' E 139°43'0 0.0
2014-Dec-17 09:34N 35°30' E 139°43'0 0.0
2014-Dec-17 08:34N 35°30' E 139°43'0 0.0
2014-Dec-17 07:34N 35°30' E 139°43'2 1.5
2014-Dec-17 06:33N 35°29' E 139°42'5 5.4
2014-Dec-17 05:33N 35°24' E 139°44'0 0.0
2014-Dec-17 04:32N 35°24' E 139°44'0 0.0
2014-Dec-17 03:33N 35°24' E 139°44'0 0.0
2014-Dec-17 02:34N 35°24' E 139°44'0 0.0
2014-Dec-17 01:33N 35°24' E 139°44'0 0.2
2014-Dec-17 00:33N 35°24' E 139°45'0 0.1
2014-Dec-16 23:33N 35°24' E 139°45'0 0.0
2014-Dec-16 22:33N 35°24' E 139°45'0 0.0
2014-Dec-16 21:34N 35°24' E 139°45'0 0.0
2014-Dec-16 20:33N 35°24' E 139°45'0 0.0
2014-Dec-16 19:33N 35°24' E 139°45'0 0.0
2014-Dec-16 18:33N 35°24' E 139°45'0 0.0
2014-Dec-16 17:32N 35°24' E 139°45'0 0.0
2014-Dec-16 16:32N 35°24' E 139°45'0 0.0
2014-Dec-16 15:31N 35°24' E 139°45'0 0.0
2014-Dec-16 14:33N 35°24' E 139°45'0 0.1
2014-Dec-16 13:33N 35°24' E 139°44'0 0.1
2014-Dec-16 12:33N 35°24' E 139°44'0 0.1
2014-Dec-16 11:33N 35°23' E 139°44'0 0.0
2014-Dec-16 10:33N 35°23' E 139°44'0 0.0
2014-Dec-16 09:33N 35°23' E 139°44'0 0.0
2014-Dec-16 08:30N 35°23' E 139°44'0 0.0
2014-Dec-16 07:33N 35°23' E 139°44'0 0.0
2014-Dec-16 06:33N 35°23' E 139°44'0 0.0
2014-Dec-16 05:33N 35°23' E 139°44'0 0.0
2014-Dec-16 04:21N 35°23' E 139°44'0 0.0
2014-Dec-16 03:30N 35°23' E 139°44'0 0.0
2014-Dec-16 02:30N 35°23' E 139°44'0 0.0
2014-Dec-16 01:10N 35°23' E 139°44'0 0.0
2014-Dec-15 23:33N 35°23' E 139°44'0 0.0
2014-Dec-15 22:33N 35°23' E 139°44'0 0.0
2014-Dec-15 21:33N 35°23' E 139°44'2 2.1
2014-Dec-15 20:33N 35°22' E 139°43'1211.0
2014-Dec-15 19:28N 35°10' E 139°47'4 0.1
2014-Dec-14 07:29N 35°15' E 139°46'1010.9
2014-Dec-14 06:33N 35°24' E 139°43'5 5.4
2014-Dec-14 05:33N 35°30' E 139°43'0 0.4
2014-Dec-14 04:33N 35°30' E 139°43'0 0.0
2014-Dec-14 03:33N 35°30' E 139°43'0 0.0
2014-Dec-14 02:33N 35°30' E 139°43'4 3.7
2014-Dec-14 01:33N 35°26' E 139°44'6 5.8
2014-Dec-14 00:33N 35°21' E 139°45'1211.3
2014-Dec-13 23:29N 35°09' E 139°46'2 0.1
2014-Dec-12 03:14N 35°11' E 139°46'811.5
2014-Dec-12 02:33N 35°19' E 139°44'1110.8
2014-Dec-12 01:33N 35°29' E 139°47'4 3.9
2014-Dec-12 00:33N 35°30' E 139°43'0 0.0
2014-Dec-11 23:33N 35°30' E 139°43'0 0.0
2014-Dec-11 22:33N 35°30' E 139°43'0 0.0
2014-Dec-11 21:33N 35°30' E 139°43'1 0.9
2014-Dec-11 20:33N 35°29' E 139°43'6 5.7
2014-Dec-11 19:33N 35°24' E 139°44'0 0.0
2014-Dec-11 18:32N 35°24' E 139°44'0 0.0
2014-Dec-11 17:32N 35°24' E 139°44'0 0.0
2014-Dec-11 16:32N 35°24' E 139°44'8 8.5
2014-Dec-11 15:33N 35°16' E 139°47'2 0.1
2014-Dec-10 03:32N 35°14' E 139°46'1111.3
2014-Dec-10 02:33N 35°24' E 139°43'5 5.4
2014-Dec-10 01:33N 35°30' E 139°43'0 0.4
2014-Dec-10 00:33N 35°30' E 139°43'0 0.0
2014-Dec-09 23:33N 35°30' E 139°43'0 0.0
2014-Dec-09 22:33N 35°30' E 139°43'0 0.0
2014-Dec-09 21:33N 35°30' E 139°43'0 0.0
2014-Dec-09 20:33N 35°30' E 139°43'0 0.0
2014-Dec-09 19:33N 35°30' E 139°43'0 0.0
2014-Dec-09 18:33N 35°30' E 139°43'0 0.0
2014-Dec-09 17:33N 35°30' E 139°43'0 0.0
2014-Dec-09 16:33N 35°30' E 139°43'0 0.0
2014-Dec-09 15:33N 35°30' E 139°43'0 0.0
2014-Dec-09 14:33N 35°30' E 139°43'0 0.0
2014-Dec-09 13:33N 35°30' E 139°43'0 0.0
2014-Dec-09 12:33N 35°30' E 139°43'0 0.0
2014-Dec-09 11:33N 35°30' E 139°43'0 0.0
2014-Dec-09 10:33N 35°30' E 139°43'0 0.0
2014-Dec-09 09:33N 35°30' E 139°43'0 0.0
2014-Dec-09 08:33N 35°30' E 139°43'0 0.0
2014-Dec-09 07:33N 35°30' E 139°43'0 0.0
2014-Dec-09 06:33N 35°30' E 139°43'0 0.0
2014-Dec-09 05:33N 35°30' E 139°43'0 0.0
2014-Dec-09 04:33N 35°30' E 139°43'2 1.8
2014-Dec-09 03:33N 35°28' E 139°42'5 5.1
2014-Dec-09 02:33N 35°24' E 139°44'0 0.1
2014-Dec-09 01:33N 35°24' E 139°44'0 0.0
2014-Dec-09 00:33N 35°24' E 139°44'0 0.0
2014-Dec-08 23:33N 35°24' E 139°44'0 0.0
2014-Dec-08 22:33N 35°24' E 139°44'0 0.0
2014-Dec-08 21:33N 35°24' E 139°44'0 0.0
2014-Dec-08 20:30N 35°24' E 139°44'0 0.0
2014-Dec-08 19:33N 35°24' E 139°44'0 0.1
2014-Dec-08 18:33N 35°24' E 139°44'0 0.0
2014-Dec-08 17:33N 35°24' E 139°44'0 0.3
2014-Dec-08 16:33N 35°23' E 139°44'1110.8
2014-Dec-08 15:33N 35°13' E 139°47'  

Dump ship's entire track history